Sanko Independence — A8QJ9 — position and weather

sailwx.info

Track history (hours):
 
Tides and Currents Weather Stations Pressure Air Temp Water Temp Dewpoint Dewpoint Depression Visibility Wind Speed Wind Dir Waves Ship Positions

Sanko Independence

Last reported at 2016-Sep-03 12:09 UTC. Time now 2016-Sep-28 20:31 UTC.
Position N 27°04' W 014°46'.
Warning: this ship's position is 25 days out of date.

Length 174 m; draft 8.3 m.

Type: Ship (hazmat cat C). MMSI: 636013946.

Date/timePositionNaut miles runAvg speedWind from/ knotsBaromVisibWave heightAir tempDewpointWater temp
2016-Sep-03 12:09N 27°04' W 014°46'1016.2
2016-Sep-03 11:33N 27°11' W 014°38'1716.8
2016-Sep-03 10:31N 27°23' W 014°25'1717.5
2016-Sep-03 09:34N 27°34' W 014°11'1717.3
2016-Sep-03 08:33N 27°47' W 013°57'1716.9
2016-Sep-03 07:33N 27°59' W 013°44'1817.6
2016-Sep-03 06:33N 28°11' W 013°29'1717.2
2016-Sep-03 05:32N 28°25' W 013°18'1717.3
2016-Sep-03 04:33N 28°40' W 013°07'1717.0
2016-Sep-03 03:33N 28°54' W 012°57'1717.0
2016-Sep-03 02:32N 29°09' W 012°46'1717.1
2016-Sep-03 01:34N 29°23' W 012°36'1817.3
2016-Sep-03 00:33N 29°38' W 012°25'1717.1
2016-Sep-02 23:34N 29°52' W 012°15'4017.1
2016-Sep-02 21:12N 30°26' W 011°50'1417.4
2016-Sep-02 20:23N 30°38' W 011°41'1617.1
2016-Sep-02 19:25N 30°52' W 011°31'1916.9
2016-Sep-02 18:18N 31°08' W 011°19'1316.8
2016-Sep-02 17:31N 31°19' W 011°11'3416.6
2016-Sep-02 15:29N 31°48' W 010°51'3216.6
2016-Sep-02 13:33N 32°14' W 010°30'1717.0
2016-Sep-02 12:33N 32°29' W 010°19'1716.8
2016-Sep-02 11:31N 32°43' W 010°08'1816.5
2016-Sep-02 10:25N 32°59' W 009°56'3216.2
2016-Sep-02 08:25N 33°26' W 009°36'1416.5
2016-Sep-02 07:33N 33°38' W 009°26'1616.5
2016-Sep-02 06:33N 33°50' W 009°12'1616.4
2016-Sep-02 05:33N 34°00' W 008°57'1616.4
2016-Sep-02 04:33N 34°11' W 008°43'1716.5
2016-Sep-02 03:33N 34°22' W 008°27'1616.4
2016-Sep-02 02:33N 34°33' W 008°12'1616.1
2016-Sep-02 01:33N 34°43' W 007°58'1616.0
2016-Sep-02 00:33N 34°54' W 007°43'1616.3
2016-Sep-01 23:33N 35°05' W 007°28'2316.4
2016-Sep-01 22:11N 35°19' W 007°07'1116.7
2016-Sep-01 21:32N 35°27' W 006°57'7314.7
2016-Sep-01 16:33N 35°57' W 005°35'1514.9
2016-Sep-01 15:33N 36°02' W 005°18'1515.2
2016-Sep-01 14:33N 36°04' W 004°59'11215.9
2016-Sep-01 07:29N 36°14' W 002°41'1717.0
2016-Sep-01 06:29N 36°17' W 002°20'16115.7
2016-Aug-31 20:13N 37°60' E 000°16'118 2.3
2016-Aug-29 17:22N 39°57' E 000°01'0 0.0
2016-Aug-29 16:28N 39°57' E 000°01'12 1.0
2016-Aug-29 04:25N 39°52' E 000°16'3514.8
2016-Aug-29 02:04N 39°19' E 000°33'815.8
2016-Aug-29 01:33N 39°11' E 000°34'1615.6
2016-Aug-29 00:32N 38°56' E 000°38'1515.8
2016-Aug-28 23:33N 38°40' E 000°40'1616.3
2016-Aug-28 22:33N 38°26' E 000°30'1616.4
2016-Aug-28 21:33N 38°11' E 000°22'1616.4
2016-Aug-28 20:33N 37°56' E 000°14'1616.1
2016-Aug-28 19:33N 37°41' E 000°06'1616.0
2016-Aug-28 18:33N 37°27' W 000°04'1616.4
2016-Aug-28 17:34N 37°15' W 000°18'1716.6
2016-Aug-28 16:33N 37°02' W 000°31'1716.6
2016-Aug-28 15:34N 36°48' W 000°43'1615.7
2016-Aug-28 14:33N 36°37' W 000°57'1515.6
2016-Aug-28 13:33N 36°30' W 001°14'1615.7
2016-Aug-28 12:33N 36°25' W 001°33'1515.4
2016-Aug-28 11:33N 36°21' W 001°51'1515.4
2016-Aug-28 10:33N 36°17' W 002°10'1615.6
2016-Aug-28 09:33N 36°15' W 002°29'1715.8
2016-Aug-28 08:28N 36°11' W 002°50'1516.3
2016-Aug-28 07:33N 36°09' W 003°08'1616.2
2016-Aug-28 06:33N 36°07' W 003°28'6917.1
2016-Aug-28 02:32N 36°01' W 004°53'1616.5
2016-Aug-28 01:34N 35°59' W 005°12'1615.9
2016-Aug-28 00:33N 35°55' W 005°31'1615.6
2016-Aug-27 23:32N 35°53' W 005°51'1515.3
2016-Aug-27 22:34N 35°52' W 006°09'1515.1
2016-Aug-27 21:33N 35°45' W 006°26'1615.8
2016-Aug-27 20:32N 35°35' W 006°41'1616.4
2016-Aug-27 19:32N 35°24' W 006°56'1616.0
2016-Aug-27 18:34N 35°13' W 007°09'1716.5
2016-Aug-27 17:33N 35°01' W 007°24'2015.8
2016-Aug-27 16:17N 34°48' W 007°42'1216.1
2016-Aug-27 15:33N 34°41' W 007°54'1616.0
2016-Aug-27 14:33N 34°32' W 008°10'1616.0
2016-Aug-27 13:33N 34°22' W 008°25'35215.0
2016-Aug-26 14:10N 29°36' W 012°26'1215.3
2016-Aug-26 13:23N 29°26' W 012°34'1315.3
2016-Aug-26 12:32N 29°15' W 012°42'1515.7
2016-Aug-26 11:33N 29°02' W 012°51'1615.7
2016-Aug-26 10:33N 28°48' W 013°01'1615.4
2016-Aug-26 09:32N 28°35' W 013°11'1615.6
2016-Aug-26 08:32N 28°22' W 013°20'1515.5
2016-Aug-26 07:33N 28°10' W 013°31'1515.3
2016-Aug-26 06:33N 27°59' W 013°43'3215.6
2016-Aug-26 04:28N 27°36' W 014°09'1415.8
2016-Aug-26 03:33N 27°26' W 014°20'3715.3
2016-Aug-26 01:09N 27°00' W 014°50'31615.1
2016-Aug-25 04:12N 22°32' W 017°53'1414.3
2016-Aug-25 03:15N 22°20' W 017°59'1114.6
2016-Aug-25 02:31N 22°09' W 018°00'2014.9
2016-Aug-25 01:10N 21°49' W 017°60'2914.4
2016-Aug-24 23:09N 21°20' W 018°00'  
Track history (hours):
 
Tides and Currents Weather Stations Pressure Air Temp Water Temp Dewpoint Dewpoint Depression Visibility Wind Speed Wind Dir Waves Ship Positions

Sanko Independence

Last reported at 2016-Sep-03 12:09 UTC. Time now 2016-Sep-28 20:31 UTC.
Position N 27°04' W 014°46'.
Warning: this ship's position is 25 days out of date.

Length 174 m; draft 8.3 m.

Type: Ship (hazmat cat C). MMSI: 636013946.

Date/timePositionNaut miles runAvg speedWind from/ knotsBaromVisibWave heightAir tempDewpointWater temp
2016-Sep-03 12:09N 27°04' W 014°46'1016.2
2016-Sep-03 11:33N 27°11' W 014°38'1716.8
2016-Sep-03 10:31N 27°23' W 014°25'1717.5
2016-Sep-03 09:34N 27°34' W 014°11'1717.3
2016-Sep-03 08:33N 27°47' W 013°57'1716.9
2016-Sep-03 07:33N 27°59' W 013°44'1817.6
2016-Sep-03 06:33N 28°11' W 013°29'1717.2
2016-Sep-03 05:32N 28°25' W 013°18'1717.3
2016-Sep-03 04:33N 28°40' W 013°07'1717.0
2016-Sep-03 03:33N 28°54' W 012°57'1717.0
2016-Sep-03 02:32N 29°09' W 012°46'1717.1
2016-Sep-03 01:34N 29°23' W 012°36'1817.3
2016-Sep-03 00:33N 29°38' W 012°25'1717.1
2016-Sep-02 23:34N 29°52' W 012°15'4017.1
2016-Sep-02 21:12N 30°26' W 011°50'1417.4
2016-Sep-02 20:23N 30°38' W 011°41'1617.1
2016-Sep-02 19:25N 30°52' W 011°31'1916.9
2016-Sep-02 18:18N 31°08' W 011°19'1316.8
2016-Sep-02 17:31N 31°19' W 011°11'3416.6
2016-Sep-02 15:29N 31°48' W 010°51'3216.6
2016-Sep-02 13:33N 32°14' W 010°30'1717.0
2016-Sep-02 12:33N 32°29' W 010°19'1716.8
2016-Sep-02 11:31N 32°43' W 010°08'1816.5
2016-Sep-02 10:25N 32°59' W 009°56'3216.2
2016-Sep-02 08:25N 33°26' W 009°36'1416.5
2016-Sep-02 07:33N 33°38' W 009°26'1616.5
2016-Sep-02 06:33N 33°50' W 009°12'1616.4
2016-Sep-02 05:33N 34°00' W 008°57'1616.4
2016-Sep-02 04:33N 34°11' W 008°43'1716.5
2016-Sep-02 03:33N 34°22' W 008°27'1616.4
2016-Sep-02 02:33N 34°33' W 008°12'1616.1
2016-Sep-02 01:33N 34°43' W 007°58'1616.0
2016-Sep-02 00:33N 34°54' W 007°43'1616.3
2016-Sep-01 23:33N 35°05' W 007°28'2316.4
2016-Sep-01 22:11N 35°19' W 007°07'1116.7
2016-Sep-01 21:32N 35°27' W 006°57'7314.7
2016-Sep-01 16:33N 35°57' W 005°35'1514.9
2016-Sep-01 15:33N 36°02' W 005°18'1515.2
2016-Sep-01 14:33N 36°04' W 004°59'11215.9
2016-Sep-01 07:29N 36°14' W 002°41'1717.0
2016-Sep-01 06:29N 36°17' W 002°20'16115.7
2016-Aug-31 20:13N 37°60' E 000°16'118 2.3
2016-Aug-29 17:22N 39°57' E 000°01'0 0.0
2016-Aug-29 16:28N 39°57' E 000°01'12 1.0
2016-Aug-29 04:25N 39°52' E 000°16'3514.8
2016-Aug-29 02:04N 39°19' E 000°33'815.8
2016-Aug-29 01:33N 39°11' E 000°34'1615.6
2016-Aug-29 00:32N 38°56' E 000°38'1515.8
2016-Aug-28 23:33N 38°40' E 000°40'1616.3
2016-Aug-28 22:33N 38°26' E 000°30'1616.4
2016-Aug-28 21:33N 38°11' E 000°22'1616.4
2016-Aug-28 20:33N 37°56' E 000°14'1616.1
2016-Aug-28 19:33N 37°41' E 000°06'1616.0
2016-Aug-28 18:33N 37°27' W 000°04'1616.4
2016-Aug-28 17:34N 37°15' W 000°18'1716.6
2016-Aug-28 16:33N 37°02' W 000°31'1716.6
2016-Aug-28 15:34N 36°48' W 000°43'1615.7
2016-Aug-28 14:33N 36°37' W 000°57'1515.6
2016-Aug-28 13:33N 36°30' W 001°14'1615.7
2016-Aug-28 12:33N 36°25' W 001°33'1515.4
2016-Aug-28 11:33N 36°21' W 001°51'1515.4
2016-Aug-28 10:33N 36°17' W 002°10'1615.6
2016-Aug-28 09:33N 36°15' W 002°29'1715.8
2016-Aug-28 08:28N 36°11' W 002°50'1516.3
2016-Aug-28 07:33N 36°09' W 003°08'1616.2
2016-Aug-28 06:33N 36°07' W 003°28'6917.1
2016-Aug-28 02:32N 36°01' W 004°53'1616.5
2016-Aug-28 01:34N 35°59' W 005°12'1615.9
2016-Aug-28 00:33N 35°55' W 005°31'1615.6
2016-Aug-27 23:32N 35°53' W 005°51'1515.3
2016-Aug-27 22:34N 35°52' W 006°09'1515.1
2016-Aug-27 21:33N 35°45' W 006°26'1615.8
2016-Aug-27 20:32N 35°35' W 006°41'1616.4
2016-Aug-27 19:32N 35°24' W 006°56'1616.0
2016-Aug-27 18:34N 35°13' W 007°09'1716.5
2016-Aug-27 17:33N 35°01' W 007°24'2015.8
2016-Aug-27 16:17N 34°48' W 007°42'1216.1
2016-Aug-27 15:33N 34°41' W 007°54'1616.0
2016-Aug-27 14:33N 34°32' W 008°10'1616.0
2016-Aug-27 13:33N 34°22' W 008°25'35215.0
2016-Aug-26 14:10N 29°36' W 012°26'1215.3
2016-Aug-26 13:23N 29°26' W 012°34'1315.3
2016-Aug-26 12:32N 29°15' W 012°42'1515.7
2016-Aug-26 11:33N 29°02' W 012°51'1615.7
2016-Aug-26 10:33N 28°48' W 013°01'1615.4
2016-Aug-26 09:32N 28°35' W 013°11'1615.6
2016-Aug-26 08:32N 28°22' W 013°20'1515.5
2016-Aug-26 07:33N 28°10' W 013°31'1515.3
2016-Aug-26 06:33N 27°59' W 013°43'3215.6
2016-Aug-26 04:28N 27°36' W 014°09'1415.8
2016-Aug-26 03:33N 27°26' W 014°20'3715.3
2016-Aug-26 01:09N 27°00' W 014°50'31615.1
2016-Aug-25 04:12N 22°32' W 017°53'1414.3
2016-Aug-25 03:15N 22°20' W 017°59'1114.6
2016-Aug-25 02:31N 22°09' W 018°00'2014.9
2016-Aug-25 01:10N 21°49' W 017°60'2914.4
2016-Aug-24 23:09N 21°20' W 018°00'  

Dump ship's entire track history